Main page
METAR-TAF:

METAR-TAF

Airports :

Gore Bay-Manitoulin Airport

Gore Bay, Ontario, Canada

latitude: 45-53N, longitude: 082-34W, elevation: 633 ft

Current weather observation

The report was made 51 minutes ago, at 18:00 UTC
Wind 7 mph from the North, varying between Northwest and North/Northeast
Temperature 34°F
Humidity 44%
Pressure 30.28 in. Hg
Visibility: 9 miles
Clear sky

METAR: CYZE 241800Z AUTO 35006KT 310V030 9SM CLR 01/M10 A3028 RMK SLP264

Time: 14:51 (18:51 UTC)

Forecast

The report was made 5 hours and 11 minutes ago, at 13:40 UTC
Forecast valid from 24 at 14 UTC to 24 at 22 UTC
Wind 14 mph from the North/Northeast with gusts up to 25 mph
Visibility: 6 miles
Clear sky
Becoming
from 24 at 16 UTC to 24 at 18 UTC
Wind 12 mph from the North
From 24 at 2000 UTC
Wind 8 mph from the North
Visibility: 6 miles
Clear sky

TAF: CYZE 241340Z 2414/2422 02012G22KT P6SM SKC BECMG 2416/2418 01010KT FM242000 35007KT P6SM SKC RMK FCST BASED ON AUTO OBS. NXT FCST BY 242000Z

Weather observations and forecasts of more than 4000 airports (METAR and TAF reports).

The available stations are represented by yellow and red dots on the map.

Hover mouse over dot to see the name of the station.

Then click to see weather observations and forecasts.

To change the map : click on the green buttons with a black cross to zoom in, on the green button with a dash to zoom out, or on the green arrows for adjacent maps.


METAR-TAF: